sensor_id;sensor_type;location;lat;lon;timestamp;pressure;altitude;pressure_sealevel;temperature;humidity
4273;BME280;63887;53.656;9.810;2023-01-31T00:00:15;101754.88;;;3.51;84.75
4273;BME280;63887;53.656;9.810;2023-01-31T00:02:42;101759.28;;;3.45;84.68
4273;BME280;63887;53.656;9.810;2023-01-31T00:05:08;101755.88;;;3.35;85.00
4273;BME280;63887;53.656;9.810;2023-01-31T00:07:34;101759.41;;;3.31;85.21
4273;BME280;63887;53.656;9.810;2023-01-31T00:10:01;101751.69;;;3.20;85.17
4273;BME280;63887;53.656;9.810;2023-01-31T00:12:28;101759.53;;;3.11;85.72
4273;BME280;63887;53.656;9.810;2023-01-31T00:14:55;101761.25;;;3.15;85.69
4273;BME280;63887;53.656;9.810;2023-01-31T00:17:21;101757.81;;;3.12;85.83
4273;BME280;63887;53.656;9.810;2023-01-31T00:19:47;101758.63;;;3.18;85.75
4273;BME280;63887;53.656;9.810;2023-01-31T00:22:14;101772.38;;;3.26;85.77
4273;BME280;63887;53.656;9.810;2023-01-31T00:24:40;101762.88;;;3.28;85.97
4273;BME280;63887;53.656;9.810;2023-01-31T00:27:06;101769.72;;;3.36;85.87
4273;BME280;63887;53.656;9.810;2023-01-31T00:29:34;101774.03;;;3.37;85.91
4273;BME280;63887;53.656;9.810;2023-01-31T00:32:00;101766.13;;;3.50;85.49
4273;BME280;63887;53.656;9.810;2023-01-31T00:34:28;101767.84;;;3.50;85.87
4273;BME280;63887;53.656;9.810;2023-01-31T00:36:54;101773.00;;;3.54;86.08
4273;BME280;63887;53.656;9.810;2023-01-31T00:39:20;101786.81;;;3.58;86.57
4273;BME280;63887;53.656;9.810;2023-01-31T00:41:47;101798.06;;;3.58;86.52
4273;BME280;63887;53.656;9.810;2023-01-31T00:44:13;101814.34;;;3.74;86.26
4273;BME280;63887;53.656;9.810;2023-01-31T00:46:41;101799.59;;;3.76;86.83
4273;BME280;63887;53.656;9.810;2023-01-31T00:49:07;101802.53;;;3.38;89.14
4273;BME280;63887;53.656;9.810;2023-01-31T00:51:33;101802.63;;;3.26;90.38
4273;BME280;63887;53.656;9.810;2023-01-31T00:54:00;101803.59;;;3.16;90.78
4273;BME280;63887;53.656;9.810;2023-01-31T00:56:26;101786.38;;;3.04;91.20
4273;BME280;63887;53.656;9.810;2023-01-31T00:58:53;101780.47;;;2.88;91.23
4273;BME280;63887;53.656;9.810;2023-01-31T01:01:20;101784.03;;;2.71;92.18
4273;BME280;63887;53.656;9.810;2023-01-31T01:03:50;101779.78;;;2.57;92.77
4273;BME280;63887;53.656;9.810;2023-01-31T01:06:17;101778.09;;;2.49;93.28
4273;BME280;63887;53.656;9.810;2023-01-31T01:08:43;101790.22;;;2.44;93.93
4273;BME280;63887;53.656;9.810;2023-01-31T01:11:11;101794.53;;;2.40;94.13
4273;BME280;63887;53.656;9.810;2023-01-31T01:13:38;101798.00;;;2.42;94.73
4273;BME280;63887;53.656;9.810;2023-01-31T01:16:05;101807.47;;;2.42;94.67
4273;BME280;63887;53.656;9.810;2023-01-31T01:18:31;101797.16;;;2.38;94.90
4273;BME280;63887;53.656;9.810;2023-01-31T01:21:04;101798.84;;;2.38;95.10
4273;BME280;63887;53.656;9.810;2023-01-31T01:23:31;101797.16;;;2.34;95.19
4273;BME280;63887;53.656;9.810;2023-01-31T01:25:57;101798.84;;;2.36;94.89
4273;BME280;63887;53.656;9.810;2023-01-31T01:28:24;101801.47;;;2.33;94.93
4273;BME280;63887;53.656;9.810;2023-01-31T01:30:50;101801.47;;;2.32;95.28
4273;BME280;63887;53.656;9.810;2023-01-31T01:33:16;101797.13;;;2.40;95.08
4273;BME280;63887;53.656;9.810;2023-01-31T01:35:43;101798.81;;;2.46;94.90
4273;BME280;63887;53.656;9.810;2023-01-31T01:38:10;101815.22;;;2.46;95.32
4273;BME280;63887;53.656;9.810;2023-01-31T01:40:37;101809.13;;;2.52;95.36
4273;BME280;63887;53.656;9.810;2023-01-31T01:43:03;101803.13;;;2.54;95.30
4273;BME280;63887;53.656;9.810;2023-01-31T01:45:30;101803.09;;;2.53;95.58
4273;BME280;63887;53.656;9.810;2023-01-31T01:47:58;101803.09;;;2.51;95.07
4273;BME280;63887;53.656;9.810;2023-01-31T01:50:27;101801.41;;;2.46;95.46
4273;BME280;63887;53.656;9.810;2023-01-31T01:52:55;101800.53;;;2.48;95.03
4273;BME280;63887;53.656;9.810;2023-01-31T01:55:25;101792.75;;;2.50;94.87
4273;BME280;63887;53.656;9.810;2023-01-31T01:57:55;101794.44;;;2.58;94.68
4273;BME280;63887;53.656;9.810;2023-01-31T02:00:26;101794.44;;;2.60;94.76
4273;BME280;63887;53.656;9.810;2023-01-31T02:02:55;101802.19;;;2.63;94.55
4273;BME280;63887;53.656;9.810;2023-01-31T02:05:23;101802.19;;;2.69;94.35
4273;BME280;63887;53.656;9.810;2023-01-31T02:07:51;101807.28;;;2.78;94.59
4273;BME280;63887;53.656;9.810;2023-01-31T02:10:20;101815.91;;;2.79;94.04
4273;BME280;63887;53.656;9.810;2023-01-31T02:12:49;101815.91;;;2.85;93.96
4273;BME280;63887;53.656;9.810;2023-01-31T02:15:16;101815.81;;;2.98;94.12
4273;BME280;63887;53.656;9.810;2023-01-31T02:17:42;101814.03;;;3.05;93.25
4273;BME280;63887;53.656;9.810;2023-01-31T02:20:12;101810.59;;;3.02;93.14
4273;BME280;63887;53.656;9.810;2023-01-31T02:22:44;101802.72;;;3.12;93.15
4273;BME280;63887;53.656;9.810;2023-01-31T02:28:19;101815.72;;;3.11;92.64
4273;BME280;63887;53.656;9.810;2023-01-31T02:30:59;101807.97;;;3.08;92.96
4273;BME280;63887;53.656;9.810;2023-01-31T02:33:33;101808.88;;;3.02;93.30
4273;BME280;63887;53.656;9.810;2023-01-31T02:36:03;101807.19;;;2.98;93.57
4273;BME280;63887;53.656;9.810;2023-01-31T02:38:38;101814.06;;;2.96;93.63
4273;BME280;63887;53.656;9.810;2023-01-31T02:41:09;101802.78;;;3.08;93.65
4273;BME280;63887;53.656;9.810;2023-01-31T02:43:40;101811.41;;;3.08;93.77
4273;BME280;63887;53.656;9.810;2023-01-31T03:03:19;101827.13;;;2.82;94.28
4273;BME280;63887;53.656;9.810;2023-01-31T03:06:08;101821.13;;;2.76;94.62
4273;BME280;63887;53.656;9.810;2023-01-31T03:08:35;101822.00;;;2.75;95.05
4273;BME280;63887;53.656;9.810;2023-01-31T03:11:03;101815.97;;;2.71;95.07
4273;BME280;63887;53.656;9.810;2023-01-31T03:13:33;101816.84;;;2.70;95.84
4273;BME280;63887;53.656;9.810;2023-01-31T03:16:02;101807.31;;;2.75;95.91
4273;BME280;63887;53.656;9.810;2023-01-31T03:18:54;101801.28;;;2.73;95.42
4273;BME280;63887;53.656;9.810;2023-01-31T03:21:24;101806.44;;;2.76;96.04
4273;BME280;63887;53.656;9.810;2023-01-31T03:23:53;101800.44;;;2.71;95.70
4273;BME280;63887;53.656;9.810;2023-01-31T03:26:21;101795.25;;;2.69;96.15
4273;BME280;63887;53.656;9.810;2023-01-31T03:28:48;101787.50;;;2.65;96.35
4273;BME280;63887;53.656;9.810;2023-01-31T03:31:20;101791.88;;;2.57;95.94
4273;BME280;63887;53.656;9.810;2023-01-31T03:33:49;101791.91;;;2.54;96.08
4273;BME280;63887;53.656;9.810;2023-01-31T03:36:19;101797.06;;;2.52;96.66
4273;BME280;63887;53.656;9.810;2023-01-31T03:38:56;101799.66;;;2.51;96.80
4273;BME280;63887;53.656;9.810;2023-01-31T03:41:24;101795.31;;;2.57;96.50
4273;BME280;63887;53.656;9.810;2023-01-31T03:43:55;101789.28;;;2.58;96.74
4273;BME280;63887;53.656;9.810;2023-01-31T03:46:24;101802.19;;;2.63;96.42
4273;BME280;63887;53.656;9.810;2023-01-31T03:48:53;101790.97;;;2.61;96.82
4273;BME280;63887;53.656;9.810;2023-01-31T03:51:24;101799.56;;;2.66;96.52
4273;BME280;63887;53.656;9.810;2023-01-31T03:53:52;101792.69;;;2.68;96.35
4273;BME280;63887;53.656;9.810;2023-01-31T03:56:20;101800.44;;;2.71;96.33
4273;BME280;63887;53.656;9.810;2023-01-31T03:58:49;101790.06;;;2.73;96.33
4273;BME280;63887;53.656;9.810;2023-01-31T04:01:18;101790.06;;;2.71;96.64
4273;BME280;63887;53.656;9.810;2023-01-31T04:03:46;101796.97;;;2.71;97.01
4273;BME280;63887;53.656;9.810;2023-01-31T04:06:13;101800.44;;;2.68;97.28
4273;BME280;63887;53.656;9.810;2023-01-31T04:08:43;101804.75;;;2.69;96.99
4273;BME280;63887;53.656;9.810;2023-01-31T04:11:11;101801.25;;;2.76;97.02
4273;BME280;63887;53.656;9.810;2023-01-31T04:13:38;101791.75;;;2.78;97.21
4273;BME280;63887;53.656;9.810;2023-01-31T04:16:05;101784.81;;;2.79;97.35
4273;BME280;63887;53.656;9.810;2023-01-31T04:18:32;101786.50;;;2.87;97.38
4273;BME280;63887;53.656;9.810;2023-01-31T04:20:58;101776.16;;;2.86;97.28
4273;BME280;63887;53.656;9.810;2023-01-31T04:23:24;101783.94;;;2.84;97.77
4273;BME280;63887;53.656;9.810;2023-01-31T04:25:52;101785.63;;;2.90;97.43
4273;BME280;63887;53.656;9.810;2023-01-31T04:28:19;101785.63;;;2.88;98.09
4273;BME280;63887;53.656;9.810;2023-01-31T04:30:45;101782.19;;;2.88;98.21
4273;BME280;63887;53.656;9.810;2023-01-31T04:33:11;101789.06;;;2.92;98.04
4273;BME280;63887;53.656;9.810;2023-01-31T04:35:38;101793.38;;;2.93;98.25
4273;BME280;63887;53.656;9.810;2023-01-31T04:38:04;101795.06;;;3.00;98.37
4273;BME280;63887;53.656;9.810;2023-01-31T04:40:31;101787.25;;;3.03;98.25
4273;BME280;63887;53.656;9.810;2023-01-31T04:42:59;101810.56;;;3.05;98.08
4273;BME280;63887;53.656;9.810;2023-01-31T04:45:25;101793.25;;;3.08;98.36
4273;BME280;63887;53.656;9.810;2023-01-31T04:47:52;101804.50;;;3.09;98.65
4273;BME280;63887;53.656;9.810;2023-01-31T04:50:18;101806.22;;;3.13;98.39
4273;BME280;63887;53.656;9.810;2023-01-31T04:52:46;101804.47;;;3.15;98.60
4273;BME280;63887;53.656;9.810;2023-01-31T04:55:14;101795.81;;;3.16;98.20
4273;BME280;63887;53.656;9.810;2023-01-31T04:57:40;101794.13;;;3.13;98.16
4273;BME280;63887;53.656;9.810;2023-01-31T05:00:09;101792.38;;;3.14;98.42
4273;BME280;63887;53.656;9.810;2023-01-31T05:02:35;101794.09;;;3.10;98.53
4273;BME280;63887;53.656;9.810;2023-01-31T05:05:02;101791.50;;;3.12;98.68
4273;BME280;63887;53.656;9.810;2023-01-31T05:07:28;101794.13;;;3.09;99.13
4273;BME280;63887;53.656;9.810;2023-01-31T05:09:55;101797.53;;;3.12;98.68
4273;BME280;63887;53.656;9.810;2023-01-31T05:12:21;101792.38;;;3.12;98.68
4273;BME280;63887;53.656;9.810;2023-01-31T05:14:47;101788.94;;;3.13;98.71
4273;BME280;63887;53.656;9.810;2023-01-31T05:17:16;101786.28;;;3.18;98.55
4273;BME280;63887;53.656;9.810;2023-01-31T05:19:50;101779.41;;;3.15;98.79
4273;BME280;63887;53.656;9.810;2023-01-31T05:22:16;101778.53;;;3.15;98.99
4273;BME280;63887;53.656;9.810;2023-01-31T05:24:46;101766.38;;;3.21;98.26
4273;BME280;63887;53.656;9.810;2023-01-31T05:27:13;101760.34;;;3.21;98.81
4273;BME280;63887;53.656;9.810;2023-01-31T05:29:39;101767.28;;;3.19;98.14
4273;BME280;63887;53.656;9.810;2023-01-31T05:32:06;101764.69;;;3.19;98.55
4273;BME280;63887;53.656;9.810;2023-01-31T05:34:34;101751.66;;;3.23;98.17
4273;BME280;63887;53.656;9.810;2023-01-31T05:37:01;101748.22;;;3.23;98.21
4273;BME280;63887;53.656;9.810;2023-01-31T05:39:27;101743.84;;;3.26;98.05
4273;BME280;63887;53.656;9.810;2023-01-31T05:41:54;101743.00;;;3.26;97.46
4273;BME280;63887;53.656;9.810;2023-01-31T05:44:20;101743.84;;;3.26;97.94
4273;BME280;63887;53.656;9.810;2023-01-31T05:46:46;101724.00;;;3.24;97.78
4273;BME280;63887;53.656;9.810;2023-01-31T05:49:13;101729.19;;;3.24;97.94
4273;BME280;63887;53.656;9.810;2023-01-31T05:51:40;101736.97;;;3.24;97.92
4273;BME280;63887;53.656;9.810;2023-01-31T05:54:07;101730.03;;;3.26;97.42
4273;BME280;63887;53.656;9.810;2023-01-31T05:56:33;101725.69;;;3.29;97.48
4273;BME280;63887;53.656;9.810;2023-01-31T05:59:00;101727.50;;;3.21;97.35
4273;BME280;63887;53.656;9.810;2023-01-31T06:01:27;101720.56;;;3.23;97.14
4273;BME280;63887;53.656;9.810;2023-01-31T06:03:54;101722.31;;;3.21;97.17
4273;BME280;63887;53.656;9.810;2023-01-31T06:06:20;101723.16;;;3.22;97.65
4273;BME280;63887;53.656;9.810;2023-01-31T06:08:48;101717.09;;;3.23;97.61
4273;BME280;63887;53.656;9.810;2023-01-31T06:11:14;101705.88;;;3.21;97.61
4273;BME280;63887;53.656;9.810;2023-01-31T06:13:42;101709.41;;;3.17;97.60
4273;BME280;63887;53.656;9.810;2023-01-31T06:16:09;101705.91;;;3.19;97.22
4273;BME280;63887;53.656;9.810;2023-01-31T06:18:35;101697.25;;;3.20;97.06
4273;BME280;63887;53.656;9.810;2023-01-31T06:21:02;101700.72;;;3.21;97.33
4273;BME280;63887;53.656;9.810;2023-01-31T06:23:28;101698.09;;;3.22;97.56
4273;BME280;63887;53.656;9.810;2023-01-31T06:25:56;101694.63;;;3.23;97.60
4273;BME280;63887;53.656;9.810;2023-01-31T06:28:22;101693.78;;;3.21;97.60
4273;BME280;63887;53.656;9.810;2023-01-31T06:30:49;101696.28;;;3.32;97.35
4273;BME280;63887;53.656;9.810;2023-01-31T06:33:15;101678.94;;;3.37;96.53
4273;BME280;63887;53.656;9.810;2023-01-31T06:35:42;101683.25;;;3.37;96.99
4273;BME280;63887;53.656;9.810;2023-01-31T06:38:08;101676.38;;;3.36;96.56
4273;BME280;63887;53.656;9.810;2023-01-31T06:40:36;101665.06;;;3.40;96.62
4273;BME280;63887;53.656;9.810;2023-01-31T06:43:04;101665.94;;;3.39;97.02
4273;BME280;63887;53.656;9.810;2023-01-31T06:45:30;101664.19;;;3.44;96.40
4273;BME280;63887;53.656;9.810;2023-01-31T06:47:56;101663.34;;;3.39;96.60
4273;BME280;63887;53.656;9.810;2023-01-31T06:50:23;101655.56;;;3.39;96.31
4273;BME280;63887;53.656;9.810;2023-01-31T06:52:49;101644.25;;;3.49;96.31
4273;BME280;63887;53.656;9.810;2023-01-31T06:55:16;101653.78;;;3.45;96.44
4273;BME280;63887;53.656;9.810;2023-01-31T06:57:45;101653.81;;;3.44;96.16
4273;BME280;63887;53.656;9.810;2023-01-31T07:02:40;101643.38;;;3.50;95.93
4273;BME280;63887;53.656;9.810;2023-01-31T07:05:07;101634.75;;;3.48;95.82
4273;BME280;63887;53.656;9.810;2023-01-31T07:07:33;101628.72;;;3.46;95.83
4273;BME280;63887;53.656;9.810;2023-01-31T07:09:59;101634.69;;;3.51;95.77
4273;BME280;63887;53.656;9.810;2023-01-31T07:12:26;101626.88;;;3.54;95.34
4273;BME280;63887;53.656;9.810;2023-01-31T07:14:53;101612.03;;;3.67;95.33
4273;BME280;63887;53.656;9.810;2023-01-31T07:17:19;101606.94;;;3.59;95.02
4273;BME280;63887;53.656;9.810;2023-01-31T07:19:47;101604.38;;;3.57;95.31
4273;BME280;63887;53.656;9.810;2023-01-31T07:22:13;101593.97;;;3.59;95.31
4273;BME280;63887;53.656;9.810;2023-01-31T07:24:40;101596.50;;;3.64;95.31
4273;BME280;63887;53.656;9.810;2023-01-31T07:27:06;101598.31;;;3.58;95.17
4273;BME280;63887;53.656;9.810;2023-01-31T07:29:32;101590.47;;;3.63;95.42
4273;BME280;63887;53.656;9.810;2023-01-31T07:31:59;101586.13;;;3.64;95.53
4273;BME280;63887;53.656;9.810;2023-01-31T07:34:25;101588.66;;;3.68;94.79
4273;BME280;63887;53.656;9.810;2023-01-31T07:36:53;101573.03;;;3.71;94.59
4273;BME280;63887;53.656;9.810;2023-01-31T07:39:19;101570.47;;;3.70;95.27
4273;BME280;63887;53.656;9.810;2023-01-31T07:41:45;101558.34;;;3.73;95.62
4273;BME280;63887;53.656;9.810;2023-01-31T07:44:12;101560.75;;;3.84;94.66
4273;BME280;63887;53.656;9.810;2023-01-31T07:46:38;101561.63;;;3.84;94.54
4273;BME280;63887;53.656;9.810;2023-01-31T07:49:05;101565.06;;;3.85;94.59
4273;BME280;63887;53.656;9.810;2023-01-31T07:51:31;101560.78;;;3.82;94.47
4273;BME280;63887;53.656;9.810;2023-01-31T07:53:59;101560.56;;;3.98;93.89
4273;BME280;63887;53.656;9.810;2023-01-31T07:56:25;101564.16;;;3.89;94.23
4273;BME280;63887;53.656;9.810;2023-01-31T07:58:51;101551.09;;;3.95;93.93
4273;BME280;63887;53.656;9.810;2023-01-31T08:01:18;101545.78;;;4.01;94.02
4273;BME280;63887;53.656;9.810;2023-01-31T08:04:03;101544.09;;;4.02;94.35
4273;BME280;63887;53.656;9.810;2023-01-31T08:06:29;101543.09;;;4.09;93.69
4273;BME280;63887;53.656;9.810;2023-01-31T08:08:56;101537.91;;;4.09;94.00
4273;BME280;63887;53.656;9.810;2023-01-31T08:11:24;101539.63;;;4.10;94.51
4273;BME280;63887;53.656;9.810;2023-01-31T08:13:51;101536.16;;;4.09;94.51
4273;BME280;63887;53.656;9.810;2023-01-31T08:16:17;101537.75;;;4.19;94.06
4273;BME280;63887;53.656;9.810;2023-01-31T08:18:45;101543.91;;;4.12;95.03
4273;BME280;63887;53.656;9.810;2023-01-31T08:21:11;101529.09;;;4.19;94.61
4273;BME280;63887;53.656;9.810;2023-01-31T08:23:38;101530.75;;;4.23;94.50
4273;BME280;63887;53.656;9.810;2023-01-31T08:26:05;101522.09;;;4.24;94.93
4273;BME280;63887;53.656;9.810;2023-01-31T08:28:35;101521.25;;;4.22;94.38
4273;BME280;63887;53.656;9.810;2023-01-31T08:31:01;101518.47;;;4.34;94.15
4273;BME280;63887;53.656;9.810;2023-01-31T08:33:28;101520.25;;;4.32;94.25
4273;BME280;63887;53.656;9.810;2023-01-31T08:35:54;101519.53;;;4.21;94.62
4273;BME280;63887;53.656;9.810;2023-01-31T08:38:20;101506.63;;;4.16;94.19
4273;BME280;63887;53.656;9.810;2023-01-31T08:40:47;101500.56;;;4.16;95.03
4273;BME280;63887;53.656;9.810;2023-01-31T08:43:14;101496.97;;;4.25;94.86
4273;BME280;63887;53.656;9.810;2023-01-31T08:45:42;101495.25;;;4.25;94.67
4273;BME280;63887;53.656;9.810;2023-01-31T08:48:08;101486.53;;;4.28;94.16
4273;BME280;63887;53.656;9.810;2023-01-31T08:50:34;101486.63;;;4.23;94.38
4273;BME280;63887;53.656;9.810;2023-01-31T08:53:01;101484.94;;;4.21;94.60
4273;BME280;63887;53.656;9.810;2023-01-31T08:55:29;101472.63;;;4.32;95.38
4273;BME280;63887;53.656;9.810;2023-01-31T08:57:55;101465.75;;;4.28;95.33
4273;BME280;63887;53.656;9.810;2023-01-31T09:00:22;101458.06;;;4.23;95.83
4273;BME280;63887;53.656;9.810;2023-01-31T09:02:53;101456.34;;;4.22;95.51
4273;BME280;63887;53.656;9.810;2023-01-31T09:05:20;101445.03;;;4.25;96.24
4273;BME280;63887;53.656;9.810;2023-01-31T09:07:47;101436.50;;;4.19;96.24
4273;BME280;63887;53.656;9.810;2023-01-31T09:10:13;101431.31;;;4.16;96.81
4273;BME280;63887;53.656;9.810;2023-01-31T09:12:39;101423.53;;;4.16;96.76
4273;BME280;63887;53.656;9.810;2023-01-31T09:15:06;101423.56;;;4.15;97.33
4273;BME280;63887;53.656;9.810;2023-01-31T09:17:32;101414.69;;;4.28;96.66
4273;BME280;63887;53.656;9.810;2023-01-31T09:20:00;101409.47;;;4.28;96.43
4273;BME280;63887;53.656;9.810;2023-01-31T09:22:30;101405.91;;;4.35;96.80
4273;BME280;63887;53.656;9.810;2023-01-31T09:24:57;101398.19;;;4.32;96.38
4273;BME280;63887;53.656;9.810;2023-01-31T09:27:23;101401.66;;;4.30;96.45
4273;BME280;63887;53.656;9.810;2023-01-31T09:29:50;101401.63;;;4.31;96.77
4273;BME280;63887;53.656;9.810;2023-01-31T09:32:16;101393.81;;;4.34;96.55
4273;BME280;63887;53.656;9.810;2023-01-31T09:34:43;101399.84;;;4.35;96.71
4273;BME280;63887;53.656;9.810;2023-01-31T09:37:13;101394.59;;;4.38;96.84
4273;BME280;63887;53.656;9.810;2023-01-31T09:39:39;101389.56;;;4.29;96.53
4273;BME280;63887;53.656;9.810;2023-01-31T09:42:08;101386.03;;;4.33;96.85
4273;BME280;63887;53.656;9.810;2023-01-31T09:44:38;101383.44;;;4.33;97.61
4273;BME280;63887;53.656;9.810;2023-01-31T09:47:08;101378.22;;;4.34;97.18
4273;BME280;63887;53.656;9.810;2023-01-31T09:49:36;101375.31;;;4.49;96.89
4273;BME280;63887;53.656;9.810;2023-01-31T09:52:08;101369.47;;;4.38;97.31
4273;BME280;63887;53.656;9.810;2023-01-31T09:54:37;101371.03;;;4.48;97.19
4273;BME280;63887;53.656;9.810;2023-01-31T09:57:07;101368.31;;;4.53;97.19
4273;BME280;63887;53.656;9.810;2023-01-31T09:59:38;101359.59;;;4.56;97.08
4273;BME280;63887;53.656;9.810;2023-01-31T10:02:10;101355.22;;;4.58;96.84
4273;BME280;63887;53.656;9.810;2023-01-31T10:04:41;101359.44;;;4.65;97.51
4273;BME280;63887;53.656;9.810;2023-01-31T10:07:15;101352.66;;;4.56;97.64
4273;BME280;63887;53.656;9.810;2023-01-31T10:09:48;101345.72;;;4.57;97.98
4273;BME280;63887;53.656;9.810;2023-01-31T10:12:16;101347.41;;;4.59;97.28
4273;BME280;63887;53.656;9.810;2023-01-31T10:14:46;101333.56;;;4.59;97.52
4273;BME280;63887;53.656;9.810;2023-01-31T10:17:15;101339.53;;;4.64;98.27
4273;BME280;63887;53.656;9.810;2023-01-31T10:19:44;101341.91;;;4.73;98.15
4273;BME280;63887;53.656;9.810;2023-01-31T10:22:14;101329.94;;;4.67;97.73
4273;BME280;63887;53.656;9.810;2023-01-31T10:24:43;101319.56;;;4.66;98.73
4273;BME280;63887;53.656;9.810;2023-01-31T10:27:13;101317.81;;;4.66;98.06
4273;BME280;63887;53.656;9.810;2023-01-31T10:29:42;101315.16;;;4.69;98.33
4273;BME280;63887;53.656;9.810;2023-01-31T10:32:11;101311.69;;;4.69;98.49
4273;BME280;63887;53.656;9.810;2023-01-31T10:34:41;101298.63;;;4.72;98.88
4273;BME280;63887;53.656;9.810;2023-01-31T10:37:11;101293.25;;;4.81;98.02
4273;BME280;63887;53.656;9.810;2023-01-31T10:39:40;101297.72;;;4.74;98.74
4273;BME280;63887;53.656;9.810;2023-01-31T10:42:11;101286.50;;;4.72;98.28
4273;BME280;63887;53.656;9.810;2023-01-31T10:44:43;101280.31;;;4.78;99.17
4273;BME280;63887;53.656;9.810;2023-01-31T10:47:13;101290.69;;;4.79;98.63
4273;BME280;63887;53.656;9.810;2023-01-31T10:49:41;101274.28;;;4.77;98.74
4273;BME280;63887;53.656;9.810;2023-01-31T10:52:11;101265.34;;;4.88;98.68
4273;BME280;63887;53.656;9.810;2023-01-31T10:54:46;101262.84;;;4.85;99.22
4273;BME280;63887;53.656;9.810;2023-01-31T10:57:14;101255.06;;;4.83;98.64
4273;BME280;63887;53.656;9.810;2023-01-31T10:59:44;101257.69;;;4.83;98.81
4273;BME280;63887;53.656;9.810;2023-01-31T11:02:15;101252.41;;;4.86;99.47
4273;BME280;63887;53.656;9.810;2023-01-31T11:04:43;101256.59;;;4.93;99.31
4273;BME280;63887;53.656;9.810;2023-01-31T11:07:09;101256.63;;;4.90;98.52
4273;BME280;63887;53.656;9.810;2023-01-31T11:09:37;101256.34;;;5.02;99.37
4273;BME280;63887;53.656;9.810;2023-01-31T11:12:05;101279.75;;;5.02;98.86
4273;BME280;63887;53.656;9.810;2023-01-31T11:14:32;101265.94;;;5.00;98.73
4273;BME280;63887;53.656;9.810;2023-01-31T11:17:03;101264.09;;;5.04;98.81
4273;BME280;63887;53.656;9.810;2023-01-31T11:19:35;101266.34;;;5.19;98.88
4273;BME280;63887;53.656;9.810;2023-01-31T11:22:02;101260.25;;;5.20;98.94
4273;BME280;63887;53.656;9.810;2023-01-31T11:24:30;101247.06;;;5.28;98.66
4273;BME280;63887;53.656;9.810;2023-01-31T11:26:58;101247.91;;;5.28;99.54
4273;BME280;63887;53.656;9.810;2023-01-31T11:29:26;101240.13;;;5.28;98.75
4273;BME280;63887;53.656;9.810;2023-01-31T11:31:53;101231.59;;;5.23;99.38
4273;BME280;63887;53.656;9.810;2023-01-31T11:34:22;101236.84;;;5.20;100.00
4273;BME280;63887;53.656;9.810;2023-01-31T11:36:49;101234.78;;;5.33;99.17
4273;BME280;63887;53.656;9.810;2023-01-31T11:39:26;101222.75;;;5.29;99.35
4273;BME280;63887;53.656;9.810;2023-01-31T11:41:52;101229.53;;;5.36;100.00
4273;BME280;63887;53.656;9.810;2023-01-31T11:44:19;101225.09;;;5.39;99.29
4273;BME280;63887;53.656;9.810;2023-01-31T11:46:47;101221.72;;;5.36;99.53
4273;BME280;63887;53.656;9.810;2023-01-31T11:49:18;101220.72;;;5.42;99.63
4273;BME280;63887;53.656;9.810;2023-01-31T11:51:48;101214.78;;;5.35;100.00
4273;BME280;63887;53.656;9.810;2023-01-31T11:54:16;101221.34;;;5.50;100.00
4273;BME280;63887;53.656;9.810;2023-01-31T11:56:44;101212.81;;;5.45;99.66
4273;BME280;63887;53.656;9.810;2023-01-31T11:59:12;101208.41;;;5.47;100.00
4273;BME280;63887;53.656;9.810;2023-01-31T12:01:45;101205.06;;;5.43;100.00
4273;BME280;63887;53.656;9.810;2023-01-31T12:04:14;101205.78;;;5.48;99.96
4273;BME280;63887;53.656;9.810;2023-01-31T12:06:41;101207.53;;;5.48;100.00
4273;BME280;63887;53.656;9.810;2023-01-31T12:09:21;101203.34;;;5.42;99.99
4273;BME280;63887;53.656;9.810;2023-01-31T12:11:49;101200.78;;;5.41;100.00
4273;BME280;63887;53.656;9.810;2023-01-31T12:14:16;101194.41;;;5.52;100.00
4273;BME280;63887;53.656;9.810;2023-01-31T12:16:43;101194.47;;;5.51;100.00
4273;BME280;63887;53.656;9.810;2023-01-31T12:19:14;101189.13;;;5.55;100.00
4273;BME280;63887;53.656;9.810;2023-01-31T12:21:48;101184.91;;;5.51;100.00
4273;BME280;63887;53.656;9.810;2023-01-31T12:24:20;101191.44;;;5.64;100.00
4273;BME280;63887;53.656;9.810;2023-01-31T12:26:52;101188.22;;;5.56;100.00
4273;BME280;63887;53.656;9.810;2023-01-31T12:32:16;101176.63;;;5.68;100.00
4273;BME280;63887;53.656;9.810;2023-01-31T12:34:57;101165.44;;;5.64;100.00
4273;BME280;63887;53.656;9.810;2023-01-31T12:37:32;101164.47;;;5.68;100.00
4273;BME280;63887;53.656;9.810;2023-01-31T12:40:10;101163.53;;;5.71;100.00
4273;BME280;63887;53.656;9.810;2023-01-31T12:42:45;101169.59;;;5.72;100.00
4273;BME280;63887;53.656;9.810;2023-01-31T12:45:25;101160.88;;;5.73;100.00
4273;BME280;63887;53.656;9.810;2023-01-31T12:48:12;101159.22;;;5.70;100.00
4273;BME280;63887;53.656;9.810;2023-01-31T12:50:42;101142.72;;;5.71;100.00
4273;BME280;63887;53.656;9.810;2023-01-31T12:56:29;101139.81;;;5.80;100.00
4273;BME280;63887;53.656;9.810;2023-01-31T12:59:03;101122.19;;;5.91;100.00
4273;BME280;63887;53.656;9.810;2023-01-31T13:01:33;101130.63;;;6.00;100.00
4273;BME280;63887;53.656;9.810;2023-01-31T13:04:05;101115.97;;;5.97;100.00
4273;BME280;63887;53.656;9.810;2023-01-31T13:06:38;101120.22;;;6.00;99.91
4273;BME280;63887;53.656;9.810;2023-01-31T13:09:09;101133.22;;;6.00;99.85
4273;BME280;63887;53.656;9.810;2023-01-31T13:11:38;101133.91;;;6.06;99.90
4273;BME280;63887;53.656;9.810;2023-01-31T13:14:10;101137.41;;;6.05;99.51
4273;BME280;63887;53.656;9.810;2023-01-31T13:16:39;101131.53;;;5.98;100.00
4273;BME280;63887;53.656;9.810;2023-01-31T13:19:09;101117.25;;;6.12;99.45
4273;BME280;63887;53.656;9.810;2023-01-31T13:21:39;101110.03;;;6.20;100.00
4273;BME280;63887;53.656;9.810;2023-01-31T13:24:09;101110.94;;;6.19;99.69
4273;BME280;63887;53.656;9.810;2023-01-31T13:26:38;101106.19;;;6.32;99.68
4273;BME280;63887;53.656;9.810;2023-01-31T13:29:11;101096.53;;;6.35;99.40
4273;BME280;63887;53.656;9.810;2023-01-31T13:31:41;101091.56;;;6.27;99.04
4273;BME280;63887;53.656;9.810;2023-01-31T13:34:10;101101.84;;;6.32;99.01
4273;BME280;63887;53.656;9.810;2023-01-31T13:36:40;101091.47;;;6.31;98.69
4273;BME280;63887;53.656;9.810;2023-01-31T13:39:11;101102.84;;;6.28;98.44
4273;BME280;63887;53.656;9.810;2023-01-31T13:41:38;101106.09;;;6.35;98.77
4273;BME280;63887;53.656;9.810;2023-01-31T13:44:05;101090.38;;;6.38;98.60